Terminal Aerodrome Forecast
Issued by NWS Mobile, AL

Home | Current Version | Previous Version | Text Only | Print | Product List | Glossary On
Versions: 1 2 3 4 5 6 7 8 9 10 11 12 13 14 15 16 17 18 19 20 21 22 23 24 25 26 27 28 29 30 31 32 33 34 35 36 37
000
FTUS44 KMOB 271507 AAA
TAFMOB
TAF AMD
KMOB 271507Z 2715/2812 04010KT P6SM VCTS FEW040CB BKN150
     FM271700 VRB25G35KT 1/2SM +TSRA OVC005CB
     FM271800 27015G25KT 5SM TSRA OVC012CB
     FM271900 20012KT 6SM TSRA SCT025CB BKN040
      TEMPO 2719/2723 3SM TSRA BR BKN025CB
     FM280000 11012KT 5SM TSRA BKN025CB=

USA.gov is the U.S. government's official web portal to all federal, state and local government web resources and services.